EGH weather

El Gora Airport
El Gora, North Sinai Governorate, Egypt

Public forecast

Using degrees Celsius for public forecast. Weather courtesy of forecast.io.

METAR (pilot weather report)

Closest report is El Arish International Airport, 15.1 nm (28.0 km) W. Retrieved 2019/04/25 23:00 UTC (33 minutes ago):

HEAR 252300Z 00000KT CAVOK 15/06 Q1018 NOSIG

TAF (pilot weather forecast)

Forecast is more than 12 hours old.

Retrieved 2019/04/17 12:00 UTC (8 days ago):

TAF HEGR 171100Z 1712/1818 34009KT 9999 SCT020 BECMG 1718/1720 VRB03KT BECMG 1806/1808 18007KT